Accueil
METAR-TAF:

METAR-TAF

Aéroports :

Sydney, Nouvelle-Écosse, Canada

latitude: 46-10N, longitude: 060-03W, altitude: 56 m

Observation

Le bulletin a été fait il y a 51 minutes, à 03:00 UTC
Vent 6 kt de ouest
Température 3°C
Humidité 81%
Pression 1014 hPa
Visibilité: 24.1 km
Ciel clair

METAR: CYQY 240300Z 27006KT 15SM SKC 03/00 A2994 RMK SLP143

Heure: 00:51 (03:51 UTC)

Prévision

Le bulletin a été fait il y a 4 heures et 13 minutes, à 23:38 UTC
Prévision valable du 24 à 00 UTC au 24 à 12 UTC
Vent 10 kt de nord-ouest
Visibilité: 10 km
Nuages épars à une hauteur de 4000 ft
A partir de 24 à 0600 UTC
Vent 5 kt de ouest
Visibilité: 10 km
Nuages fragmentés à une hauteur de 4000 ft

TAF: CYQY 232338Z 2400/2412 32010KT P6SM SCT040 FM240600 27005KT P6SM BKN040 RMK NXT FCST BY 240600Z

Observations et prévisions météorologiques de plus de 4000 aéroports (messages METAR et TAF).

Les stations disponibles sont représentées par des disques jaunes et rouges sur la carte.

Passer la souris dessus pour voir le nom de la station.

Cliquer dessus pour voir les observations et prévisions météorologiques.

Pour changer de carte: cliquez sur les boutons verts avec une croix noire pour zoomer, sur le bouton vert avec un tiret pour effectuer un zoom arrière, ou sur les flèches vertes pour les cartes adjacentes.


METAR-TAF: